createdAt,value
2022-08-02T00:01:03.417Z,20.31
2022-08-02T00:03:31.583Z,20.32
2022-08-02T00:06:01.501Z,20.32
2022-08-02T00:08:29.778Z,20.31
2022-08-02T00:10:57.949Z,20.32
2022-08-02T00:13:26.014Z,20.31
2022-08-02T00:15:54.194Z,20.31
2022-08-02T00:18:22.369Z,20.35
2022-08-02T00:20:50.851Z,20.35
2022-08-02T00:23:19.024Z,20.33
2022-08-02T00:25:55.547Z,20.32
2022-08-02T00:28:26.985Z,20.29
2022-08-02T00:30:59.519Z,20.26
2022-08-02T00:34:05.211Z,20.25
2022-08-02T00:36:17.575Z,20.29
2022-08-02T00:38:46.671Z,20.30
2022-08-02T00:41:18.032Z,20.31
2022-08-02T00:43:47.881Z,20.33
2022-08-02T00:46:17.849Z,20.33
2022-08-02T00:48:46.906Z,20.33
2022-08-02T00:51:16.962Z,20.35
2022-08-02T00:53:45.339Z,20.37
2022-08-02T00:56:13.514Z,20.36
2022-08-02T00:58:41.687Z,20.35
2022-08-02T01:01:09.932Z,20.33
2022-08-02T01:03:38.035Z,20.31
2022-08-02T01:06:13.850Z,20.32
2022-08-02T01:08:42.012Z,20.36
2022-08-02T01:11:12.083Z,20.37
2022-08-02T01:13:40.498Z,20.37
2022-08-02T01:16:16.629Z,20.34
2022-08-02T01:18:51.757Z,20.28
2022-08-02T01:21:56.001Z,20.23
2022-08-02T01:24:49.034Z,20.23
2022-08-02T01:27:26.423Z,20.19
2022-08-02T01:29:59.718Z,20.14
2022-08-02T01:32:36.955Z,20.12
2022-08-02T01:35:13.930Z,20.07
2022-08-02T01:37:51.887Z,20.06
2022-08-02T01:40:26.307Z,20.11
2022-08-02T01:42:56.055Z,20.10
2022-08-02T01:45:27.263Z,20.06
2022-08-02T01:47:56.975Z,20.00
2022-08-02T01:50:28.730Z,19.96
2022-08-02T01:52:59.878Z,19.93
2022-08-02T01:55:58.202Z,19.96
2022-08-02T01:58:27.147Z,19.94
2022-08-02T02:00:58.523Z,19.91
2022-08-02T02:03:28.207Z,19.87
2022-08-02T02:05:59.044Z,19.84
2022-08-02T02:08:36.534Z,19.85
2022-08-02T02:12:06.533Z,19.87
2022-08-02T02:13:58.687Z,19.85
2022-08-02T02:16:28.260Z,19.82
2022-08-02T02:18:56.469Z,19.79
2022-08-02T02:21:24.642Z,19.77
2022-08-02T02:23:52.918Z,19.76
2022-08-02T02:26:31.265Z,19.76
2022-08-02T02:29:03.216Z,19.73
2022-08-02T02:31:38.330Z,19.70
2022-08-02T02:34:12.245Z,19.70
2022-08-02T02:36:46.044Z,19.75
2022-08-02T02:39:16.230Z,19.73
2022-08-02T02:41:46.181Z,19.73
2022-08-02T02:44:19.950Z,19.71
2022-08-02T02:46:53.018Z,19.70
2022-08-02T02:49:23.701Z,19.69
2022-08-02T02:51:53.623Z,19.70
2022-08-02T02:54:30.383Z,19.68
2022-08-02T02:57:06.072Z,19.67
2022-08-02T02:59:49.012Z,19.64
2022-08-02T03:02:19.296Z,19.61
2022-08-02T03:04:55.614Z,19.59
2022-08-02T03:07:27.407Z,19.60
2022-08-02T03:09:55.913Z,19.60
2022-08-02T03:12:30.846Z,19.59
2022-08-02T03:15:02.075Z,19.56
2022-08-02T03:17:45.098Z,19.55
2022-08-02T03:20:16.777Z,19.54
2022-08-02T03:22:45.642Z,19.50
2022-08-02T03:25:15.869Z,19.46
2022-08-02T03:27:44.244Z,19.42
2022-08-02T03:30:14.454Z,19.37
2022-08-02T03:32:45.504Z,19.38
2022-08-02T03:35:22.884Z,19.39
2022-08-02T03:37:54.759Z,19.42
2022-08-02T03:40:23.956Z,19.46
2022-08-02T03:42:52.608Z,19.47
2022-08-02T03:45:21.197Z,19.47
2022-08-02T03:47:50.830Z,19.46
2022-08-02T03:50:20.131Z,19.47
2022-08-02T03:52:48.774Z,19.49
2022-08-02T03:55:16.889Z,19.49
2022-08-02T03:57:45.062Z,19.51
2022-08-02T04:00:19.176Z,19.53
2022-08-02T04:02:48.137Z,19.55
2022-08-02T04:05:16.915Z,19.59
2022-08-02T04:08:33.818Z,19.59
2022-08-02T04:10:55.188Z,19.57
2022-08-02T04:13:31.329Z,19.57
2022-08-02T04:16:06.792Z,19.54
2022-08-02T04:18:40.036Z,19.54
2022-08-02T04:21:12.049Z,19.58
2022-08-02T04:23:42.475Z,19.62
2022-08-02T04:26:11.673Z,19.61
2022-08-02T04:28:43.125Z,19.61
2022-08-02T04:31:11.810Z,19.62
2022-08-02T04:33:40.394Z,19.64
2022-08-02T04:36:08.956Z,19.62
2022-08-02T04:38:37.355Z,19.59
2022-08-02T04:41:05.530Z,19.59
2022-08-02T04:43:33.805Z,19.56
2022-08-02T04:46:03.627Z,19.55
2022-08-02T04:48:31.792Z,19.59
2022-08-02T04:51:00.479Z,19.59
2022-08-02T04:53:28.654Z,19.57
2022-08-02T04:55:56.826Z,19.56
2022-08-02T04:58:39.968Z,19.56
2022-08-02T05:01:08.903Z,19.59
2022-08-02T05:03:37.116Z,19.59
2022-08-02T05:06:18.826Z,19.53
2022-08-02T05:08:52.772Z,19.53
2022-08-02T05:11:34.267Z,19.57
2022-08-02T05:14:05.880Z,19.62
2022-08-02T05:16:34.441Z,19.64
2022-08-02T05:19:03.304Z,19.65
2022-08-02T05:21:32.108Z,19.65
2022-08-02T05:24:00.296Z,19.65
2022-08-02T05:26:28.573Z,19.66
2022-08-02T05:28:56.744Z,19.66
2022-08-02T05:31:24.926Z,19.66
2022-08-02T05:33:53.093Z,19.66
2022-08-02T05:36:21.669Z,19.67
2022-08-02T05:39:04.763Z,19.70
2022-08-02T05:41:33.897Z,19.70
2022-08-02T05:44:02.787Z,19.68
2022-08-02T05:46:31.421Z,19.70
2022-08-02T05:48:59.584Z,19.72
2022-08-02T05:51:36.795Z,19.75
2022-08-02T05:54:19.443Z,19.77
2022-08-02T05:56:57.148Z,19.75
2022-08-02T05:59:52.656Z,19.73
2022-08-02T06:02:27.383Z,19.75
2022-08-02T06:05:21.566Z,19.81
2022-08-02T06:07:50.457Z,19.84
2022-08-02T06:10:22.319Z,19.85
2022-08-02T06:13:06.855Z,19.86
2022-08-02T06:15:40.635Z,19.87
2022-08-02T06:18:27.919Z,19.91
2022-08-02T06:22:37.543Z,19.88
2022-08-02T06:23:57.723Z,19.85
2022-08-02T06:26:28.784Z,19.83
2022-08-02T06:28:58.705Z,19.84
2022-08-02T06:31:26.967Z,19.85
2022-08-02T06:33:55.962Z,19.85
2022-08-02T06:36:37.446Z,19.85
2022-08-02T06:39:13.095Z,19.84
2022-08-02T06:41:42.726Z,19.86
2022-08-02T06:47:13.205Z,19.98
2022-08-02T06:49:51.347Z,19.99
2022-08-02T06:52:28.684Z,19.97
2022-08-02T06:54:59.176Z,19.99
2022-08-02T06:57:28.796Z,20.04
2022-08-02T06:59:58.929Z,20.06
2022-08-02T07:02:27.229Z,20.08
2022-08-02T07:04:55.559Z,20.09
2022-08-02T07:07:24.141Z,20.11
2022-08-02T07:09:58.514Z,20.15
2022-08-02T07:12:31.283Z,20.15
2022-08-02T07:15:01.362Z,20.15
2022-08-02T07:17:30.358Z,20.16
2022-08-02T07:19:59.763Z,20.13
2022-08-02T07:22:28.725Z,20.12
2022-08-02T07:24:58.672Z,20.17
2022-08-02T07:27:27.145Z,20.20
2022-08-02T07:29:55.936Z,20.16
2022-08-02T07:32:27.282Z,20.18
2022-08-02T07:34:56.582Z,20.21
2022-08-02T07:37:53.324Z,20.25
2022-08-02T07:40:20.078Z,20.27
2022-08-02T07:42:59.291Z,20.27
2022-08-02T07:45:32.602Z,20.24
2022-08-02T07:48:00.769Z,20.23
2022-08-02T07:50:28.941Z,20.25
2022-08-02T07:52:58.001Z,20.25
2022-08-02T07:55:35.208Z,20.23
2022-08-02T07:58:11.089Z,20.23
2022-08-02T08:00:45.600Z,20.27
2022-08-02T08:03:13.779Z,20.36
2022-08-02T08:05:42.402Z,20.44
2022-08-02T08:08:16.732Z,20.47
2022-08-02T08:10:46.390Z,20.49
2022-08-02T08:13:15.478Z,20.51
2022-08-02T08:15:52.273Z,20.55
2022-08-02T08:18:22.246Z,20.61
2022-08-02T08:20:52.203Z,20.65
2022-08-02T08:23:20.564Z,20.69
2022-08-02T08:25:48.842Z,20.73
2022-08-02T08:28:17.377Z,20.79
2022-08-02T08:30:47.601Z,20.85
2022-08-02T08:33:16.455Z,20.95
2022-08-02T08:35:44.818Z,21.01
2022-08-02T08:38:13.195Z,21.06
2022-08-02T08:40:42.440Z,21.08
2022-08-02T08:43:14.266Z,21.10
2022-08-02T08:45:46.638Z,21.12
2022-08-02T08:48:30.876Z,21.16
2022-08-02T08:51:15.653Z,21.15
2022-08-02T08:53:44.771Z,21.16
2022-08-02T08:56:16.478Z,21.15
2022-08-02T08:58:47.857Z,21.17
2022-08-02T09:01:17.126Z,21.24
2022-08-02T09:03:46.395Z,21.29
2022-08-02T09:06:14.980Z,21.35
2022-08-02T09:08:43.640Z,21.38
2022-08-02T09:11:20.178Z,21.37
2022-08-02T09:13:57.268Z,21.40
2022-08-02T09:16:36.492Z,21.49
2022-08-02T09:19:19.003Z,21.55
2022-08-02T09:21:49.635Z,21.65
2022-08-02T09:24:20.167Z,21.77
2022-08-02T09:26:50.589Z,21.82
2022-08-02T09:29:22.961Z,21.87
2022-08-02T09:32:02.252Z,21.90
2022-08-02T09:34:45.047Z,21.90
2022-08-02T09:37:30.903Z,21.89
2022-08-02T09:40:00.850Z,21.89
2022-08-02T09:42:31.276Z,21.86
2022-08-02T09:45:01.465Z,21.86
2022-08-02T09:47:31.353Z,21.89
2022-08-02T09:49:59.554Z,21.95
2022-08-02T09:52:36.995Z,21.99
2022-08-02T09:55:12.361Z,22.07
2022-08-02T09:57:40.699Z,22.16
2022-08-02T10:00:14.867Z,22.28
2022-08-02T10:03:14.894Z,22.31
2022-08-02T10:05:56.222Z,22.38
2022-08-02T10:08:32.716Z,22.61
2022-08-02T10:11:02.408Z,22.80
2022-08-02T10:13:36.063Z,22.95
2022-08-02T10:16:06.804Z,23.08
2022-08-02T10:18:39.409Z,23.13
2022-08-02T10:21:37.347Z,23.27
2022-08-02T10:24:22.518Z,23.30
2022-08-02T10:26:52.330Z,23.29
2022-08-02T10:29:54.274Z,23.24
2022-08-02T10:32:30.260Z,23.15
2022-08-02T10:35:20.094Z,23.07
2022-08-02T10:38:01.579Z,22.95
2022-08-02T10:40:50.992Z,22.82
2022-08-02T10:43:37.394Z,22.72
2022-08-02T10:46:31.578Z,22.56
2022-08-02T10:49:39.640Z,22.40
2022-08-02T10:52:09.499Z,22.29
2022-08-02T10:54:40.954Z,22.22
2022-08-02T10:57:39.537Z,22.22
2022-08-02T11:00:23.891Z,22.22
2022-08-02T11:02:53.134Z,22.18
2022-08-02T11:05:42.134Z,22.17
2022-08-02T11:08:21.079Z,22.14
2022-08-02T11:10:49.357Z,22.17
2022-08-02T11:13:21.931Z,22.23
2022-08-02T11:16:01.380Z,22.28
2022-08-02T11:18:45.006Z,22.32
2022-08-02T11:21:31.205Z,22.35
2022-08-02T11:24:29.994Z,22.37
2022-08-02T11:27:00.318Z,22.41
2022-08-02T11:29:42.741Z,22.45
2022-08-02T11:32:21.548Z,22.50
2022-08-02T11:34:54.331Z,22.51
2022-08-02T11:37:35.922Z,22.51
2022-08-02T11:40:11.535Z,22.51
2022-08-02T11:42:51.416Z,22.50
2022-08-02T11:45:29.329Z,22.51
2022-08-02T11:47:58.114Z,22.57
2022-08-02T11:50:29.970Z,22.62
2022-08-02T11:52:58.550Z,22.63
2022-08-02T11:55:28.904Z,22.67
2022-08-02T11:58:04.091Z,22.71
2022-08-02T12:00:33.807Z,22.71
2022-08-02T12:03:02.228Z,22.76
2022-08-02T12:06:05.418Z,22.82
2022-08-02T12:08:25.371Z,22.84
2022-08-02T12:10:56.216Z,22.86
2022-08-02T12:13:24.391Z,22.89
2022-08-02T12:15:52.574Z,23.06
2022-08-02T12:18:41.838Z,23.28
2022-08-02T12:21:25.062Z,23.44
2022-08-02T12:23:57.113Z,23.58
2022-08-02T12:26:30.636Z,23.57
2022-08-02T12:28:59.774Z,23.55
2022-08-02T12:31:55.681Z,23.55
2022-08-02T12:34:32.034Z,23.61
2022-08-02T12:37:03.664Z,23.65
2022-08-02T12:39:45.083Z,23.81
2022-08-02T12:42:15.972Z,23.86
2022-08-02T12:44:55.937Z,23.90
2022-08-02T12:47:24.113Z,23.83
2022-08-02T12:53:34.699Z,23.63
2022-08-02T12:56:04.002Z,23.55
2022-08-02T12:58:49.321Z,23.49
2022-08-02T13:01:25.588Z,23.43
2022-08-02T13:04:09.711Z,23.41
2022-08-02T13:06:44.946Z,23.36
2022-08-02T13:09:16.412Z,23.31
2022-08-02T13:11:44.828Z,23.30
2022-08-02T13:14:14.100Z,23.27
2022-08-02T13:16:44.278Z,23.25
2022-08-02T13:19:15.249Z,23.24
2022-08-02T13:22:01.200Z,23.23
2022-08-02T13:24:40.843Z,23.24
2022-08-02T13:27:21.625Z,23.21
2022-08-02T13:29:50.934Z,23.18
2022-08-02T13:32:19.475Z,23.16
2022-08-02T13:34:48.440Z,23.14
2022-08-02T13:37:17.356Z,23.12
2022-08-02T13:39:55.619Z,23.12
2022-08-02T13:42:34.011Z,23.15
2022-08-02T13:45:12.462Z,23.24
2022-08-02T13:48:03.369Z,23.32
2022-08-02T13:50:33.359Z,23.35
2022-08-02T13:53:01.538Z,23.37
2022-08-02T13:55:29.904Z,23.48
2022-08-02T13:57:58.484Z,23.60
2022-08-02T14:00:34.767Z,23.67
2022-08-02T14:03:06.108Z,23.72
2022-08-02T14:05:47.669Z,23.77
2022-08-02T14:08:23.180Z,23.80
2022-08-02T14:10:52.186Z,23.89
2022-08-02T14:13:20.516Z,24.01
2022-08-02T14:15:49.289Z,24.13
2022-08-02T14:18:17.670Z,24.20
2022-08-02T14:20:46.149Z,24.23
2022-08-02T14:23:14.480Z,24.23
2022-08-02T14:25:42.911Z,24.25
2022-08-02T14:28:11.083Z,24.30
2022-08-02T14:30:39.465Z,24.35
2022-08-02T14:33:08.047Z,24.42
2022-08-02T14:35:36.322Z,24.47
2022-08-02T14:38:04.698Z,24.51
2022-08-02T14:40:33.320Z,24.55
2022-08-02T14:43:02.011Z,24.59
2022-08-02T14:45:39.777Z,24.62
2022-08-02T14:48:11.455Z,24.65
2022-08-02T14:50:40.019Z,24.65
2022-08-02T14:53:12.608Z,24.63
2022-08-02T14:55:43.112Z,24.62
2022-08-02T14:58:12.106Z,24.60
2022-08-02T15:00:41.585Z,24.57
2022-08-02T15:03:11.492Z,24.56
2022-08-02T15:05:40.112Z,24.54
2022-08-02T15:08:08.282Z,24.53
2022-08-02T15:10:36.771Z,24.52
2022-08-02T15:13:05.040Z,24.51
2022-08-02T15:15:33.212Z,24.52
2022-08-02T15:18:12.549Z,24.51
2022-08-02T15:20:43.944Z,24.51
2022-08-02T15:23:37.598Z,24.51
2022-08-02T15:26:07.383Z,24.52
2022-08-02T15:28:35.864Z,24.54
2022-08-02T15:31:04.144Z,24.54
2022-08-02T15:33:32.313Z,24.57
2022-08-02T15:36:00.499Z,24.54
2022-08-02T15:38:28.764Z,24.47
2022-08-02T15:40:57.041Z,24.41
2022-08-02T15:43:25.406Z,24.36
2022-08-02T15:45:53.803Z,24.32
2022-08-02T15:48:21.970Z,24.27
2022-08-02T15:50:50.248Z,24.21
2022-08-02T15:53:18.421Z,24.17
2022-08-02T15:55:52.699Z,24.15
2022-08-02T15:58:34.190Z,24.17
2022-08-02T16:01:15.994Z,24.19
2022-08-02T16:03:45.114Z,24.23
2022-08-02T16:06:13.597Z,24.30
2022-08-02T16:08:53.726Z,24.41
2022-08-02T16:11:23.152Z,24.50
2022-08-02T16:13:53.270Z,24.61
2022-08-02T16:16:24.524Z,24.69
2022-08-02T16:18:52.899Z,24.66
2022-08-02T16:21:23.007Z,24.62
2022-08-02T16:24:01.126Z,24.59
2022-08-02T16:26:32.196Z,24.55
2022-08-02T16:29:01.895Z,24.50
2022-08-02T16:31:30.255Z,24.45
2022-08-02T16:33:58.426Z,24.41
2022-08-02T16:36:27.526Z,24.35
2022-08-02T16:38:56.428Z,24.29
2022-08-02T16:41:51.639Z,24.25
2022-08-02T16:44:12.935Z,24.21
2022-08-02T16:46:41.057Z,24.17
2022-08-02T16:50:05.246Z,24.15
2022-08-02T16:52:02.243Z,24.08
2022-08-02T16:54:30.821Z,24.01
2022-08-02T16:56:59.199Z,23.96
2022-08-02T16:59:28.093Z,23.91
2022-08-02T17:02:18.121Z,23.89
2022-08-02T17:04:47.484Z,23.86
2022-08-02T17:08:08.348Z,23.81
2022-08-02T17:10:09.039Z,23.79
2022-08-02T17:12:39.242Z,23.78
2022-08-02T17:16:17.105Z,23.77
2022-08-02T17:17:57.503Z,23.75
2022-08-02T17:20:25.677Z,23.72
2022-08-02T17:22:54.052Z,23.69
2022-08-02T17:25:24.702Z,23.67
2022-08-02T17:27:55.945Z,23.67
2022-08-02T17:30:26.882Z,23.64
2022-08-02T17:32:57.505Z,23.61
2022-08-02T17:35:27.217Z,23.59
2022-08-02T17:38:11.813Z,23.56
2022-08-02T17:40:46.239Z,23.54
2022-08-02T17:43:16.706Z,23.50
2022-08-02T17:46:00.035Z,23.47
2022-08-02T17:48:50.413Z,23.46
2022-08-02T17:52:14.971Z,23.42
2022-08-02T17:54:13.683Z,23.33
2022-08-02T17:56:42.571Z,23.30
2022-08-02T17:59:20.604Z,23.28
2022-08-02T18:02:07.635Z,23.25
2022-08-02T18:04:38.161Z,23.21
2022-08-02T18:07:09.733Z,23.21
2022-08-02T18:09:39.567Z,23.17
2022-08-02T18:12:15.199Z,23.13
2022-08-02T18:14:49.012Z,23.09
2022-08-02T18:17:17.979Z,23.06
2022-08-02T18:19:53.330Z,23.02
2022-08-02T18:22:26.507Z,22.98
2022-08-02T18:24:55.091Z,22.96
2022-08-02T18:27:23.426Z,22.92
2022-08-02T18:30:00.354Z,22.86
2022-08-02T18:33:55.832Z,22.80
2022-08-02T18:35:21.187Z,22.73
2022-08-02T18:37:56.853Z,22.68
2022-08-02T18:40:25.915Z,22.63
2022-08-02T18:42:54.405Z,22.61
2022-08-02T18:45:22.571Z,22.56
2022-08-02T18:47:51.482Z,22.51
2022-08-02T18:50:20.653Z,22.47
2022-08-02T18:52:48.937Z,22.42
2022-08-02T18:56:03.495Z,22.37
2022-08-02T18:58:18.105Z,22.35
2022-08-02T19:00:51.572Z,22.31
2022-08-02T19:03:20.442Z,22.30
2022-08-02T19:05:53.567Z,22.28
2022-08-02T19:08:26.112Z,22.25
2022-08-02T19:10:56.453Z,22.23
2022-08-02T19:13:25.629Z,22.24
2022-08-02T19:15:54.110Z,22.19
2022-08-02T19:18:26.868Z,22.13
2022-08-02T19:21:03.071Z,22.04
2022-08-02T19:23:34.301Z,22.01
2022-08-02T19:26:02.986Z,22.00
2022-08-02T19:28:32.184Z,22.00
2022-08-02T19:31:01.790Z,22.02
2022-08-02T19:34:05.747Z,22.02
2022-08-02T19:36:18.337Z,22.00
2022-08-02T19:38:49.210Z,21.98
2022-08-02T19:41:18.141Z,21.95
2022-08-02T19:44:24.131Z,21.91
2022-08-02T19:46:38.655Z,21.92
2022-08-02T19:49:16.665Z,21.87
2022-08-02T19:51:55.444Z,21.81
2022-08-02T19:54:35.707Z,21.77
2022-08-02T19:57:17.042Z,21.74
2022-08-02T19:59:48.066Z,21.73
2022-08-02T20:02:18.624Z,21.77
2022-08-02T20:07:54.391Z,21.76
2022-08-02T20:10:24.944Z,21.71
2022-08-02T20:12:54.383Z,21.62
2022-08-02T20:15:22.780Z,21.57
2022-08-02T20:18:10.919Z,21.55
2022-08-02T20:20:40.331Z,21.55
2022-08-02T20:23:32.060Z,21.55
2022-08-02T20:26:02.281Z,21.54
2022-08-02T20:28:31.366Z,21.52
2022-08-02T20:31:08.772Z,21.50
2022-08-02T20:33:55.900Z,21.51
2022-08-02T20:36:28.417Z,21.48
2022-08-02T20:38:56.631Z,21.41
2022-08-02T20:41:37.218Z,21.39
2022-08-02T20:44:30.639Z,21.35
2022-08-02T20:46:59.573Z,21.30
2022-08-02T20:49:40.902Z,21.29
2022-08-02T20:52:23.437Z,21.27
2022-08-02T20:54:53.048Z,21.26
2022-08-02T20:57:48.503Z,21.22
2022-08-02T21:00:10.797Z,21.19
2022-08-02T21:02:40.132Z,21.17
2022-08-02T21:05:17.489Z,21.17
2022-08-02T21:07:47.691Z,21.11
2022-08-02T21:10:23.910Z,21.05
2022-08-02T21:12:52.653Z,21.03
2022-08-02T21:15:20.792Z,21.02
2022-08-02T21:17:59.223Z,21.00
2022-08-02T21:20:35.408Z,20.97
2022-08-02T21:23:04.094Z,20.91
2022-08-02T21:25:50.820Z,20.86
2022-08-02T21:28:20.717Z,20.84
2022-08-02T21:30:51.350Z,20.82
2022-08-02T21:33:23.496Z,20.81
2022-08-02T21:35:52.816Z,20.83
2022-08-02T21:38:35.483Z,20.84
2022-08-02T21:41:11.239Z,20.83
2022-08-02T21:43:43.797Z,20.82
2022-08-02T21:46:14.755Z,20.78
2022-08-02T21:48:43.075Z,20.74
2022-08-02T21:51:15.948Z,20.74
2022-08-02T21:53:44.337Z,20.71
2022-08-02T21:56:32.489Z,20.67
2022-08-02T21:59:04.823Z,20.62
2022-08-02T22:01:53.108Z,20.60
2022-08-02T22:04:22.295Z,20.60
2022-08-02T22:06:50.530Z,20.62
2022-08-02T22:09:43.340Z,20.59
2022-08-02T22:12:10.252Z,20.55
2022-08-02T22:14:41.512Z,20.51
2022-08-02T22:17:13.818Z,20.43
2022-08-02T22:19:51.113Z,20.36
2022-08-02T22:22:28.108Z,20.38
2022-08-02T22:24:57.402Z,20.39
2022-08-02T22:28:11.711Z,20.37
2022-08-02T22:30:13.977Z,20.31
2022-08-02T22:33:01.501Z,20.25
2022-08-02T22:35:43.398Z,20.25
2022-08-02T22:38:14.569Z,20.26
2022-08-02T22:40:47.583Z,20.23
2022-08-02T22:43:22.561Z,20.22
2022-08-02T22:45:51.452Z,20.20
2022-08-02T22:48:20.305Z,20.16
2022-08-02T22:50:48.735Z,20.12
2022-08-02T22:53:24.680Z,20.15
2022-08-02T22:56:05.107Z,20.13
2022-08-02T22:58:33.519Z,20.12
2022-08-02T22:59:06.306Z,21.78
2022-08-02T23:01:01.764Z,20.13
2022-08-02T23:03:30.789Z,20.12
2022-08-02T23:05:59.020Z,20.09
2022-08-02T23:08:27.136Z,20.07
2022-08-02T23:10:55.309Z,20.04
2022-08-02T23:13:28.176Z,20.01
2022-08-02T23:16:15.414Z,19.98
2022-08-02T23:19:02.124Z,19.95
2022-08-02T23:22:00.819Z,19.91
2022-08-02T23:24:22.744Z,19.94
2022-08-02T23:26:50.925Z,19.92
2022-08-02T23:29:19.088Z,19.89
2022-08-02T23:31:47.127Z,19.87
2022-08-02T23:34:15.334Z,19.85
2022-08-02T23:36:43.507Z,19.82
2022-08-02T23:39:11.889Z,19.84
2022-08-02T23:41:40.165Z,19.84
2022-08-02T23:44:14.126Z,19.80
2022-08-02T23:46:44.686Z,19.77
2022-08-02T23:49:13.835Z,19.74
2022-08-02T23:51:42.484Z,19.74
2022-08-02T23:54:12.398Z,19.75
2022-08-02T23:56:41.236Z,19.73
2022-08-02T23:59:09.936Z,19.70
